sensor_id;sensor_type;location;lat;lon;timestamp;P1;durP1;ratioP1;P2;durP2;ratioP2
239;SDS011;104;53.590;10.004;2022-11-27T00:02:25;81.30;;;18.00;;
239;SDS011;104;53.590;10.004;2022-11-27T00:04:52;218.77;;;19.07;;
239;SDS011;104;53.590;10.004;2022-11-27T00:07:19;107.23;;;18.60;;
239;SDS011;104;53.590;10.004;2022-11-27T00:09:48;58.53;;;19.03;;
239;SDS011;104;53.590;10.004;2022-11-27T00:12:15;109.00;;;17.90;;
239;SDS011;104;53.590;10.004;2022-11-27T00:14:43;53.93;;;16.90;;
239;SDS011;104;53.590;10.004;2022-11-27T00:17:10;160.23;;;19.27;;
239;SDS011;104;53.590;10.004;2022-11-27T00:19:37;114.93;;;18.90;;
239;SDS011;104;53.590;10.004;2022-11-27T00:22:04;73.23;;;18.10;;
239;SDS011;104;53.590;10.004;2022-11-27T00:24:32;88.70;;;18.70;;
239;SDS011;104;53.590;10.004;2022-11-27T00:27:01;114.17;;;19.40;;
239;SDS011;104;53.590;10.004;2022-11-27T00:29:28;93.93;;;20.40;;
239;SDS011;104;53.590;10.004;2022-11-27T00:31:55;91.30;;;19.60;;
239;SDS011;104;53.590;10.004;2022-11-27T00:34:23;79.43;;;20.13;;
239;SDS011;104;53.590;10.004;2022-11-27T00:36:50;132.60;;;19.77;;
239;SDS011;104;53.590;10.004;2022-11-27T00:39:17;80.57;;;19.13;;
239;SDS011;104;53.590;10.004;2022-11-27T00:41:45;77.60;;;19.10;;
239;SDS011;104;53.590;10.004;2022-11-27T00:44:14;46.87;;;19.40;;
239;SDS011;104;53.590;10.004;2022-11-27T00:46:41;159.10;;;20.57;;
239;SDS011;104;53.590;10.004;2022-11-27T00:49:09;84.50;;;19.80;;
239;SDS011;104;53.590;10.004;2022-11-27T00:51:39;93.43;;;19.17;;
239;SDS011;104;53.590;10.004;2022-11-27T00:54:06;86.90;;;18.47;;
239;SDS011;104;53.590;10.004;2022-11-27T00:56:35;66.33;;;19.50;;
239;SDS011;104;53.590;10.004;2022-11-27T00:59:04;63.97;;;18.13;;
239;SDS011;104;53.590;10.004;2022-11-27T01:01:33;119.23;;;20.50;;
239;SDS011;104;53.590;10.004;2022-11-27T01:04:03;148.57;;;20.37;;
239;SDS011;104;53.590;10.004;2022-11-27T01:06:31;49.90;;;19.47;;
239;SDS011;104;53.590;10.004;2022-11-27T01:08:59;37.30;;;16.30;;
239;SDS011;104;53.590;10.004;2022-11-27T01:11:28;52.60;;;18.70;;
239;SDS011;104;53.590;10.004;2022-11-27T01:13:57;155.17;;;18.33;;
239;SDS011;104;53.590;10.004;2022-11-27T01:16:27;48.70;;;17.77;;
239;SDS011;104;53.590;10.004;2022-11-27T01:18:57;75.30;;;18.47;;
239;SDS011;104;53.590;10.004;2022-11-27T01:21:25;77.37;;;18.37;;
239;SDS011;104;53.590;10.004;2022-11-27T01:23:54;62.93;;;19.60;;
239;SDS011;104;53.590;10.004;2022-11-27T01:26:22;63.07;;;19.50;;
239;SDS011;104;53.590;10.004;2022-11-27T01:28:50;64.37;;;19.43;;
239;SDS011;104;53.590;10.004;2022-11-27T01:31:18;62.00;;;19.30;;
239;SDS011;104;53.590;10.004;2022-11-27T01:33:47;110.60;;;17.87;;
239;SDS011;104;53.590;10.004;2022-11-27T01:36:19;50.27;;;16.27;;
239;SDS011;104;53.590;10.004;2022-11-27T01:38:47;71.07;;;16.33;;
239;SDS011;104;53.590;10.004;2022-11-27T01:41:15;84.67;;;18.60;;
239;SDS011;104;53.590;10.004;2022-11-27T01:43:44;91.30;;;18.10;;
239;SDS011;104;53.590;10.004;2022-11-27T01:46:20;44.87;;;14.80;;
239;SDS011;104;53.590;10.004;2022-11-27T01:48:52;49.10;;;15.70;;
239;SDS011;104;53.590;10.004;2022-11-27T01:51:24;55.10;;;14.83;;
239;SDS011;104;53.590;10.004;2022-11-27T01:53:51;59.17;;;15.60;;
239;SDS011;104;53.590;10.004;2022-11-27T01:56:19;65.33;;;15.73;;
239;SDS011;104;53.590;10.004;2022-11-27T01:58:48;40.57;;;15.90;;
239;SDS011;104;53.590;10.004;2022-11-27T02:01:16;67.37;;;15.77;;
239;SDS011;104;53.590;10.004;2022-11-27T02:03:43;53.80;;;15.97;;
239;SDS011;104;53.590;10.004;2022-11-27T02:06:10;87.53;;;14.63;;
239;SDS011;104;53.590;10.004;2022-11-27T02:08:40;115.97;;;15.90;;
239;SDS011;104;53.590;10.004;2022-11-27T02:11:09;64.10;;;15.23;;
239;SDS011;104;53.590;10.004;2022-11-27T02:13:40;63.63;;;13.97;;
239;SDS011;104;53.590;10.004;2022-11-27T02:16:14;68.83;;;14.57;;
239;SDS011;104;53.590;10.004;2022-11-27T02:18:51;76.17;;;16.00;;
239;SDS011;104;53.590;10.004;2022-11-27T02:21:25;34.17;;;12.93;;
239;SDS011;104;53.590;10.004;2022-11-27T02:29:53;55.03;;;14.60;;
239;SDS011;104;53.590;10.004;2022-11-27T02:32:24;39.40;;;12.80;;
239;SDS011;104;53.590;10.004;2022-11-27T02:34:57;63.37;;;14.60;;
239;SDS011;104;53.590;10.004;2022-11-27T02:37:30;37.70;;;14.33;;
239;SDS011;104;53.590;10.004;2022-11-27T02:40:01;61.60;;;14.77;;
239;SDS011;104;53.590;10.004;2022-11-27T02:42:31;48.70;;;15.37;;
239;SDS011;104;53.590;10.004;2022-11-27T02:45:03;53.57;;;14.77;;
239;SDS011;104;53.590;10.004;2022-11-27T02:47:34;57.27;;;14.30;;
239;SDS011;104;53.590;10.004;2022-11-27T02:50:04;39.00;;;14.33;;
239;SDS011;104;53.590;10.004;2022-11-27T02:52:34;42.37;;;12.87;;
239;SDS011;104;53.590;10.004;2022-11-27T02:55:04;43.30;;;14.40;;
239;SDS011;104;53.590;10.004;2022-11-27T02:57:34;30.90;;;13.47;;
239;SDS011;104;53.590;10.004;2022-11-27T03:00:04;42.20;;;14.20;;
239;SDS011;104;53.590;10.004;2022-11-27T03:02:33;36.93;;;14.13;;
239;SDS011;104;53.590;10.004;2022-11-27T03:05:03;33.07;;;14.40;;
239;SDS011;104;53.590;10.004;2022-11-27T03:07:34;30.10;;;14.57;;
239;SDS011;104;53.590;10.004;2022-11-27T03:10:06;35.27;;;14.63;;
239;SDS011;104;53.590;10.004;2022-11-27T03:12:41;40.40;;;14.97;;
239;SDS011;104;53.590;10.004;2022-11-27T03:15:10;32.60;;;14.60;;
239;SDS011;104;53.590;10.004;2022-11-27T03:17:45;49.87;;;11.97;;
239;SDS011;104;53.590;10.004;2022-11-27T03:20:18;28.23;;;12.10;;
239;SDS011;104;53.590;10.004;2022-11-27T03:22:48;65.67;;;13.40;;
239;SDS011;104;53.590;10.004;2022-11-27T03:25:16;28.43;;;10.87;;
239;SDS011;104;53.590;10.004;2022-11-27T03:27:44;40.30;;;12.17;;
239;SDS011;104;53.590;10.004;2022-11-27T03:30:16;23.90;;;11.60;;
239;SDS011;104;53.590;10.004;2022-11-27T03:32:43;75.70;;;12.70;;
239;SDS011;104;53.590;10.004;2022-11-27T03:35:11;31.33;;;12.80;;
239;SDS011;104;53.590;10.004;2022-11-27T03:37:42;26.43;;;10.80;;
239;SDS011;104;53.590;10.004;2022-11-27T03:40:10;48.57;;;12.00;;
239;SDS011;104;53.590;10.004;2022-11-27T03:42:42;26.37;;;10.93;;
239;SDS011;104;53.590;10.004;2022-11-27T03:45:21;27.33;;;11.67;;
239;SDS011;104;53.590;10.004;2022-11-27T03:47:57;21.60;;;10.80;;
239;SDS011;104;53.590;10.004;2022-11-27T03:50:34;32.07;;;10.87;;
239;SDS011;104;53.590;10.004;2022-11-27T03:53:13;102.83;;;11.70;;
239;SDS011;104;53.590;10.004;2022-11-27T03:55:46;28.20;;;10.63;;
239;SDS011;104;53.590;10.004;2022-11-27T03:58:19;26.33;;;11.90;;
239;SDS011;104;53.590;10.004;2022-11-27T04:00:53;30.53;;;10.83;;
239;SDS011;104;53.590;10.004;2022-11-27T04:03:22;26.33;;;10.67;;
239;SDS011;104;53.590;10.004;2022-11-27T04:05:50;29.93;;;10.17;;
239;SDS011;104;53.590;10.004;2022-11-27T04:08:18;23.40;;;10.63;;
239;SDS011;104;53.590;10.004;2022-11-27T04:10:45;46.97;;;11.33;;
239;SDS011;104;53.590;10.004;2022-11-27T04:13:13;26.73;;;10.30;;
239;SDS011;104;53.590;10.004;2022-11-27T04:15:40;26.00;;;11.67;;
239;SDS011;104;53.590;10.004;2022-11-27T04:18:09;28.20;;;12.20;;
239;SDS011;104;53.590;10.004;2022-11-27T04:20:36;23.67;;;10.87;;
239;SDS011;104;53.590;10.004;2022-11-27T04:23:03;24.13;;;12.10;;
239;SDS011;104;53.590;10.004;2022-11-27T04:25:30;25.53;;;10.90;;
239;SDS011;104;53.590;10.004;2022-11-27T04:27:57;61.53;;;12.10;;
239;SDS011;104;53.590;10.004;2022-11-27T04:30:24;33.23;;;12.57;;
239;SDS011;104;53.590;10.004;2022-11-27T04:32:51;40.83;;;11.97;;
239;SDS011;104;53.590;10.004;2022-11-27T04:35:19;33.40;;;12.30;;
239;SDS011;104;53.590;10.004;2022-11-27T04:37:46;32.97;;;13.00;;
239;SDS011;104;53.590;10.004;2022-11-27T04:40:13;38.00;;;12.87;;
239;SDS011;104;53.590;10.004;2022-11-27T04:42:41;43.53;;;13.47;;
239;SDS011;104;53.590;10.004;2022-11-27T04:45:08;41.60;;;11.80;;
239;SDS011;104;53.590;10.004;2022-11-27T04:47:35;30.67;;;12.83;;
239;SDS011;104;53.590;10.004;2022-11-27T04:50:03;32.00;;;14.07;;
239;SDS011;104;53.590;10.004;2022-11-27T04:52:32;33.57;;;14.80;;
239;SDS011;104;53.590;10.004;2022-11-27T04:54:59;52.03;;;13.23;;
239;SDS011;104;53.590;10.004;2022-11-27T04:57:26;30.03;;;13.00;;
239;SDS011;104;53.590;10.004;2022-11-27T04:59:53;41.63;;;13.50;;
239;SDS011;104;53.590;10.004;2022-11-27T05:02:20;48.60;;;13.70;;
239;SDS011;104;53.590;10.004;2022-11-27T05:04:48;34.90;;;13.40;;
239;SDS011;104;53.590;10.004;2022-11-27T05:07:15;40.80;;;13.90;;
239;SDS011;104;53.590;10.004;2022-11-27T05:09:44;116.07;;;13.83;;
239;SDS011;104;53.590;10.004;2022-11-27T05:12:11;41.70;;;14.03;;
239;SDS011;104;53.590;10.004;2022-11-27T05:14:38;59.03;;;13.93;;
239;SDS011;104;53.590;10.004;2022-11-27T05:17:05;54.33;;;14.10;;
239;SDS011;104;53.590;10.004;2022-11-27T05:19:32;147.17;;;14.17;;
239;SDS011;104;53.590;10.004;2022-11-27T05:21:59;85.97;;;14.90;;
239;SDS011;104;53.590;10.004;2022-11-27T05:24:27;58.93;;;15.23;;
239;SDS011;104;53.590;10.004;2022-11-27T05:26:56;69.47;;;16.07;;
239;SDS011;104;53.590;10.004;2022-11-27T05:29:23;56.80;;;15.50;;
239;SDS011;104;53.590;10.004;2022-11-27T05:31:51;52.70;;;15.60;;
239;SDS011;104;53.590;10.004;2022-11-27T05:34:18;41.57;;;15.23;;
239;SDS011;104;53.590;10.004;2022-11-27T05:36:45;58.17;;;15.90;;
239;SDS011;104;53.590;10.004;2022-11-27T05:39:12;49.90;;;14.47;;
239;SDS011;104;53.590;10.004;2022-11-27T05:41:40;53.50;;;15.30;;
239;SDS011;104;53.590;10.004;2022-11-27T05:44:10;41.00;;;15.20;;
239;SDS011;104;53.590;10.004;2022-11-27T05:46:38;79.87;;;17.70;;
239;SDS011;104;53.590;10.004;2022-11-27T05:49:08;61.00;;;14.57;;
239;SDS011;104;53.590;10.004;2022-11-27T05:51:36;61.77;;;18.30;;
239;SDS011;104;53.590;10.004;2022-11-27T05:54:04;72.40;;;16.50;;
239;SDS011;104;53.590;10.004;2022-11-27T05:56:31;46.83;;;15.10;;
239;SDS011;104;53.590;10.004;2022-11-27T05:58:58;49.43;;;15.67;;
239;SDS011;104;53.590;10.004;2022-11-27T06:01:27;72.77;;;15.63;;
239;SDS011;104;53.590;10.004;2022-11-27T06:03:54;44.77;;;15.77;;
239;SDS011;104;53.590;10.004;2022-11-27T06:06:21;57.80;;;15.90;;
239;SDS011;104;53.590;10.004;2022-11-27T06:08:48;52.80;;;15.57;;
239;SDS011;104;53.590;10.004;2022-11-27T06:11:16;67.63;;;15.37;;
239;SDS011;104;53.590;10.004;2022-11-27T06:13:46;63.23;;;16.70;;
239;SDS011;104;53.590;10.004;2022-11-27T06:16:15;51.13;;;15.60;;
239;SDS011;104;53.590;10.004;2022-11-27T06:18:47;53.10;;;16.20;;
239;SDS011;104;53.590;10.004;2022-11-27T06:21:15;53.43;;;15.83;;
239;SDS011;104;53.590;10.004;2022-11-27T06:23:42;44.23;;;15.80;;
239;SDS011;104;53.590;10.004;2022-11-27T06:26:13;56.70;;;15.13;;
239;SDS011;104;53.590;10.004;2022-11-27T06:28:42;56.80;;;15.83;;
239;SDS011;104;53.590;10.004;2022-11-27T06:31:10;53.97;;;15.63;;
239;SDS011;104;53.590;10.004;2022-11-27T06:33:38;47.77;;;16.10;;
239;SDS011;104;53.590;10.004;2022-11-27T06:36:07;47.77;;;15.73;;
239;SDS011;104;53.590;10.004;2022-11-27T06:38:35;49.00;;;15.70;;
239;SDS011;104;53.590;10.004;2022-11-27T06:41:03;54.77;;;15.30;;
239;SDS011;104;53.590;10.004;2022-11-27T06:43:31;48.17;;;16.47;;
239;SDS011;104;53.590;10.004;2022-11-27T06:45:59;41.07;;;13.70;;
239;SDS011;104;53.590;10.004;2022-11-27T06:48:27;51.80;;;16.17;;
239;SDS011;104;53.590;10.004;2022-11-27T06:50:57;44.90;;;15.90;;
239;SDS011;104;53.590;10.004;2022-11-27T06:53:26;43.60;;;15.90;;
239;SDS011;104;53.590;10.004;2022-11-27T06:55:53;44.50;;;15.60;;
239;SDS011;104;53.590;10.004;2022-11-27T06:58:20;47.40;;;14.80;;
239;SDS011;104;53.590;10.004;2022-11-27T07:00:48;55.63;;;15.87;;
239;SDS011;104;53.590;10.004;2022-11-27T07:03:15;47.43;;;13.63;;
239;SDS011;104;53.590;10.004;2022-11-27T07:05:42;66.87;;;13.83;;
239;SDS011;104;53.590;10.004;2022-11-27T07:08:09;44.87;;;15.23;;
239;SDS011;104;53.590;10.004;2022-11-27T07:10:37;43.63;;;14.97;;
239;SDS011;104;53.590;10.004;2022-11-27T07:13:04;40.23;;;15.73;;
239;SDS011;104;53.590;10.004;2022-11-27T07:15:32;46.97;;;14.80;;
239;SDS011;104;53.590;10.004;2022-11-27T07:17:59;42.47;;;16.47;;
239;SDS011;104;53.590;10.004;2022-11-27T07:20:26;52.20;;;16.07;;
239;SDS011;104;53.590;10.004;2022-11-27T07:22:54;43.77;;;15.90;;
239;SDS011;104;53.590;10.004;2022-11-27T07:25:21;47.53;;;15.67;;
239;SDS011;104;53.590;10.004;2022-11-27T07:27:49;41.07;;;14.57;;
239;SDS011;104;53.590;10.004;2022-11-27T07:30:16;42.10;;;15.43;;
239;SDS011;104;53.590;10.004;2022-11-27T07:32:43;45.70;;;14.80;;
239;SDS011;104;53.590;10.004;2022-11-27T07:35:11;45.67;;;15.63;;
239;SDS011;104;53.590;10.004;2022-11-27T07:37:38;39.17;;;13.77;;
239;SDS011;104;53.590;10.004;2022-11-27T07:40:05;32.90;;;13.57;;
239;SDS011;104;53.590;10.004;2022-11-27T07:42:33;46.17;;;15.73;;
239;SDS011;104;53.590;10.004;2022-11-27T07:45:02;44.90;;;14.80;;
239;SDS011;104;53.590;10.004;2022-11-27T07:47:29;35.53;;;13.63;;
239;SDS011;104;53.590;10.004;2022-11-27T07:49:56;29.63;;;13.10;;
239;SDS011;104;53.590;10.004;2022-11-27T07:52:24;34.50;;;13.00;;
239;SDS011;104;53.590;10.004;2022-11-27T07:54:51;39.83;;;14.63;;
239;SDS011;104;53.590;10.004;2022-11-27T07:57:18;41.70;;;15.03;;
239;SDS011;104;53.590;10.004;2022-11-27T07:59:45;37.63;;;14.50;;
239;SDS011;104;53.590;10.004;2022-11-27T08:02:14;32.17;;;14.20;;
239;SDS011;104;53.590;10.004;2022-11-27T08:04:41;34.77;;;13.90;;
239;SDS011;104;53.590;10.004;2022-11-27T08:07:08;31.30;;;12.73;;
239;SDS011;104;53.590;10.004;2022-11-27T08:09:35;34.23;;;13.53;;
239;SDS011;104;53.590;10.004;2022-11-27T08:12:03;30.60;;;12.57;;
239;SDS011;104;53.590;10.004;2022-11-27T08:14:31;36.10;;;13.50;;
239;SDS011;104;53.590;10.004;2022-11-27T08:16:58;29.97;;;12.57;;
239;SDS011;104;53.590;10.004;2022-11-27T08:19:27;26.90;;;13.23;;
239;SDS011;104;53.590;10.004;2022-11-27T08:21:56;29.40;;;13.90;;
239;SDS011;104;53.590;10.004;2022-11-27T08:24:24;28.37;;;12.90;;
239;SDS011;104;53.590;10.004;2022-11-27T08:26:52;29.07;;;13.13;;
239;SDS011;104;53.590;10.004;2022-11-27T08:29:19;34.17;;;13.53;;
239;SDS011;104;53.590;10.004;2022-11-27T08:31:46;30.53;;;12.70;;
239;SDS011;104;53.590;10.004;2022-11-27T08:34:13;32.50;;;13.67;;
239;SDS011;104;53.590;10.004;2022-11-27T08:36:42;32.27;;;13.40;;
239;SDS011;104;53.590;10.004;2022-11-27T08:39:10;36.07;;;13.60;;
239;SDS011;104;53.590;10.004;2022-11-27T08:41:38;29.10;;;13.27;;
239;SDS011;104;53.590;10.004;2022-11-27T08:44:05;37.13;;;12.67;;
239;SDS011;104;53.590;10.004;2022-11-27T08:46:33;35.70;;;14.03;;
239;SDS011;104;53.590;10.004;2022-11-27T08:49:03;29.80;;;12.70;;
239;SDS011;104;53.590;10.004;2022-11-27T08:51:31;39.67;;;13.23;;
239;SDS011;104;53.590;10.004;2022-11-27T08:54:00;37.33;;;13.77;;
239;SDS011;104;53.590;10.004;2022-11-27T08:56:27;31.93;;;13.63;;
239;SDS011;104;53.590;10.004;2022-11-27T08:58:54;27.50;;;12.53;;
239;SDS011;104;53.590;10.004;2022-11-27T09:01:23;31.20;;;12.87;;
239;SDS011;104;53.590;10.004;2022-11-27T09:03:54;29.57;;;12.00;;
239;SDS011;104;53.590;10.004;2022-11-27T09:06:22;35.93;;;13.90;;
239;SDS011;104;53.590;10.004;2022-11-27T09:08:54;33.63;;;14.07;;
239;SDS011;104;53.590;10.004;2022-11-27T09:11:23;41.47;;;17.07;;
239;SDS011;104;53.590;10.004;2022-11-27T09:13:50;41.37;;;15.00;;
239;SDS011;104;53.590;10.004;2022-11-27T09:16:18;36.10;;;14.97;;
239;SDS011;104;53.590;10.004;2022-11-27T09:18:47;41.77;;;16.97;;
239;SDS011;104;53.590;10.004;2022-11-27T09:21:16;43.83;;;16.43;;
239;SDS011;104;53.590;10.004;2022-11-27T09:23:44;35.00;;;13.43;;
239;SDS011;104;53.590;10.004;2022-11-27T09:26:12;46.67;;;16.20;;
239;SDS011;104;53.590;10.004;2022-11-27T09:28:42;40.10;;;14.20;;
239;SDS011;104;53.590;10.004;2022-11-27T09:31:10;39.20;;;15.90;;
239;SDS011;104;53.590;10.004;2022-11-27T09:33:39;37.67;;;15.33;;
239;SDS011;104;53.590;10.004;2022-11-27T09:36:08;43.10;;;17.00;;
239;SDS011;104;53.590;10.004;2022-11-27T09:38:36;42.00;;;16.40;;
239;SDS011;104;53.590;10.004;2022-11-27T09:41:05;35.73;;;14.30;;
239;SDS011;104;53.590;10.004;2022-11-27T09:43:44;40.83;;;15.90;;
239;SDS011;104;53.590;10.004;2022-11-27T09:46:19;41.30;;;15.27;;
239;SDS011;104;53.590;10.004;2022-11-27T09:48:54;35.37;;;14.30;;
239;SDS011;104;53.590;10.004;2022-11-27T09:51:26;37.00;;;15.20;;
239;SDS011;104;53.590;10.004;2022-11-27T09:53:55;46.53;;;15.50;;
239;SDS011;104;53.590;10.004;2022-11-27T09:56:25;42.07;;;16.10;;
239;SDS011;104;53.590;10.004;2022-11-27T09:58:56;39.13;;;14.67;;
239;SDS011;104;53.590;10.004;2022-11-27T10:01:25;35.13;;;14.03;;
239;SDS011;104;53.590;10.004;2022-11-27T10:03:55;34.30;;;15.03;;
239;SDS011;104;53.590;10.004;2022-11-27T10:06:23;48.40;;;15.50;;
239;SDS011;104;53.590;10.004;2022-11-27T10:09:04;49.10;;;17.10;;
239;SDS011;104;53.590;10.004;2022-11-27T10:11:44;42.70;;;16.50;;
239;SDS011;104;53.590;10.004;2022-11-27T10:14:21;38.00;;;15.17;;
239;SDS011;104;53.590;10.004;2022-11-27T10:17:02;43.43;;;15.37;;
239;SDS011;104;53.590;10.004;2022-11-27T10:19:38;44.23;;;15.83;;
239;SDS011;104;53.590;10.004;2022-11-27T10:22:14;46.00;;;15.03;;
239;SDS011;104;53.590;10.004;2022-11-27T10:24:49;46.70;;;16.13;;
239;SDS011;104;53.590;10.004;2022-11-27T10:27:24;39.93;;;16.37;;
239;SDS011;104;53.590;10.004;2022-11-27T10:29:58;39.53;;;16.20;;
239;SDS011;104;53.590;10.004;2022-11-27T10:32:27;43.83;;;16.20;;
239;SDS011;104;53.590;10.004;2022-11-27T10:34:57;40.23;;;16.23;;
239;SDS011;104;53.590;10.004;2022-11-27T10:37:29;43.30;;;17.33;;
239;SDS011;104;53.590;10.004;2022-11-27T10:40:05;55.17;;;18.10;;
239;SDS011;104;53.590;10.004;2022-11-27T10:42:42;46.53;;;17.80;;
239;SDS011;104;53.590;10.004;2022-11-27T10:45:18;39.10;;;16.40;;
239;SDS011;104;53.590;10.004;2022-11-27T10:47:49;41.03;;;16.63;;
239;SDS011;104;53.590;10.004;2022-11-27T10:50:16;50.80;;;16.70;;
239;SDS011;104;53.590;10.004;2022-11-27T10:52:44;39.80;;;17.03;;
239;SDS011;104;53.590;10.004;2022-11-27T10:55:20;41.80;;;15.67;;
239;SDS011;104;53.590;10.004;2022-11-27T10:58:02;44.13;;;15.70;;
239;SDS011;104;53.590;10.004;2022-11-27T11:00:32;37.53;;;17.43;;
239;SDS011;104;53.590;10.004;2022-11-27T11:03:01;37.80;;;17.40;;
239;SDS011;104;53.590;10.004;2022-11-27T11:05:30;42.10;;;15.87;;
239;SDS011;104;53.590;10.004;2022-11-27T11:08:00;39.57;;;18.00;;
239;SDS011;104;53.590;10.004;2022-11-27T11:10:31;39.50;;;17.07;;
239;SDS011;104;53.590;10.004;2022-11-27T11:13:17;41.60;;;17.40;;
239;SDS011;104;53.590;10.004;2022-11-27T11:15:51;40.57;;;17.57;;
239;SDS011;104;53.590;10.004;2022-11-27T11:18:21;42.67;;;17.27;;
239;SDS011;104;53.590;10.004;2022-11-27T11:20:49;35.50;;;15.67;;
239;SDS011;104;53.590;10.004;2022-11-27T11:23:22;38.60;;;15.00;;
239;SDS011;104;53.590;10.004;2022-11-27T11:25:53;36.33;;;15.90;;
239;SDS011;104;53.590;10.004;2022-11-27T11:28:22;45.60;;;17.53;;
239;SDS011;104;53.590;10.004;2022-11-27T11:31:00;46.27;;;18.70;;
239;SDS011;104;53.590;10.004;2022-11-27T11:33:28;42.67;;;17.50;;
239;SDS011;104;53.590;10.004;2022-11-27T11:35:58;35.40;;;16.53;;
239;SDS011;104;53.590;10.004;2022-11-27T11:38:32;41.37;;;16.93;;
239;SDS011;104;53.590;10.004;2022-11-27T11:41:01;40.67;;;16.47;;
239;SDS011;104;53.590;10.004;2022-11-27T11:43:29;44.60;;;17.20;;
239;SDS011;104;53.590;10.004;2022-11-27T11:46:04;41.80;;;17.60;;
239;SDS011;104;53.590;10.004;2022-11-27T11:48:33;35.63;;;15.40;;
239;SDS011;104;53.590;10.004;2022-11-27T11:51:03;39.03;;;17.50;;
239;SDS011;104;53.590;10.004;2022-11-27T11:53:35;39.47;;;17.37;;
239;SDS011;104;53.590;10.004;2022-11-27T11:56:06;37.53;;;16.90;;
239;SDS011;104;53.590;10.004;2022-11-27T11:58:50;38.53;;;16.33;;
239;SDS011;104;53.590;10.004;2022-11-27T12:01:28;47.20;;;17.80;;
239;SDS011;104;53.590;10.004;2022-11-27T12:04:06;43.47;;;18.27;;
239;SDS011;104;53.590;10.004;2022-11-27T12:06:49;38.57;;;16.60;;
239;SDS011;104;53.590;10.004;2022-11-27T12:09:26;47.30;;;18.67;;
239;SDS011;104;53.590;10.004;2022-11-27T12:11:56;41.73;;;16.97;;
239;SDS011;104;53.590;10.004;2022-11-27T12:14:35;44.00;;;18.40;;
239;SDS011;104;53.590;10.004;2022-11-27T12:17:15;35.30;;;16.70;;
239;SDS011;104;53.590;10.004;2022-11-27T12:22:34;56.70;;;22.30;;
239;SDS011;104;53.590;10.004;2022-11-27T12:25:26;55.87;;;20.43;;
239;SDS011;104;53.590;10.004;2022-11-27T12:28:01;40.27;;;19.03;;
239;SDS011;104;53.590;10.004;2022-11-27T12:30:40;45.70;;;19.53;;
239;SDS011;104;53.590;10.004;2022-11-27T12:36:07;48.60;;;17.37;;
239;SDS011;104;53.590;10.004;2022-11-27T12:38:47;36.17;;;15.83;;
239;SDS011;104;53.590;10.004;2022-11-27T12:41:38;32.90;;;14.57;;
239;SDS011;104;53.590;10.004;2022-11-27T12:44:14;33.40;;;14.63;;
239;SDS011;104;53.590;10.004;2022-11-27T12:46:49;32.00;;;15.40;;
239;SDS011;104;53.590;10.004;2022-11-27T12:49:26;90.63;;;36.00;;
239;SDS011;104;53.590;10.004;2022-11-27T12:51:55;38.33;;;15.80;;
239;SDS011;104;53.590;10.004;2022-11-27T12:54:28;33.73;;;15.17;;
239;SDS011;104;53.590;10.004;2022-11-27T12:57:12;33.90;;;14.77;;
239;SDS011;104;53.590;10.004;2022-11-27T12:59:41;33.80;;;15.67;;
239;SDS011;104;53.590;10.004;2022-11-27T13:02:16;39.23;;;17.27;;
239;SDS011;104;53.590;10.004;2022-11-27T13:05:01;40.90;;;16.73;;
239;SDS011;104;53.590;10.004;2022-11-27T13:07:33;43.13;;;18.07;;
239;SDS011;104;53.590;10.004;2022-11-27T13:10:18;49.50;;;19.27;;
239;SDS011;104;53.590;10.004;2022-11-27T13:12:50;38.43;;;17.07;;
239;SDS011;104;53.590;10.004;2022-11-27T13:15:27;47.20;;;17.53;;
239;SDS011;104;53.590;10.004;2022-11-27T13:18:02;41.10;;;17.00;;
239;SDS011;104;53.590;10.004;2022-11-27T13:20:35;43.83;;;17.87;;
239;SDS011;104;53.590;10.004;2022-11-27T13:23:05;37.90;;;17.30;;
239;SDS011;104;53.590;10.004;2022-11-27T13:25:35;45.73;;;18.47;;
239;SDS011;104;53.590;10.004;2022-11-27T13:28:13;37.93;;;17.37;;
239;SDS011;104;53.590;10.004;2022-11-27T13:30:51;46.47;;;17.90;;
239;SDS011;104;53.590;10.004;2022-11-27T13:33:31;43.87;;;18.20;;
239;SDS011;104;53.590;10.004;2022-11-27T13:36:02;39.97;;;17.67;;
239;SDS011;104;53.590;10.004;2022-11-27T13:38:43;36.63;;;16.80;;
239;SDS011;104;53.590;10.004;2022-11-27T13:41:18;35.10;;;16.00;;
239;SDS011;104;53.590;10.004;2022-11-27T13:43:46;35.50;;;16.00;;
239;SDS011;104;53.590;10.004;2022-11-27T13:46:17;30.83;;;14.83;;
239;SDS011;104;53.590;10.004;2022-11-27T13:48:47;41.80;;;15.33;;
239;SDS011;104;53.590;10.004;2022-11-27T13:51:25;29.67;;;14.10;;
239;SDS011;104;53.590;10.004;2022-11-27T13:53:53;30.63;;;14.10;;
239;SDS011;104;53.590;10.004;2022-11-27T13:56:33;41.10;;;15.77;;
239;SDS011;104;53.590;10.004;2022-11-27T13:59:11;33.40;;;15.77;;
239;SDS011;104;53.590;10.004;2022-11-27T14:01:53;30.87;;;15.70;;
239;SDS011;104;53.590;10.004;2022-11-27T14:04:22;34.93;;;15.83;;
239;SDS011;104;53.590;10.004;2022-11-27T14:06:54;36.80;;;16.43;;
239;SDS011;104;53.590;10.004;2022-11-27T14:09:30;37.33;;;17.33;;
239;SDS011;104;53.590;10.004;2022-11-27T14:11:58;45.57;;;18.40;;
239;SDS011;104;53.590;10.004;2022-11-27T14:14:32;32.73;;;15.77;;
239;SDS011;104;53.590;10.004;2022-11-27T14:16:59;34.83;;;15.27;;
239;SDS011;104;53.590;10.004;2022-11-27T14:19:30;31.80;;;15.27;;
239;SDS011;104;53.590;10.004;2022-11-27T14:22:00;35.50;;;16.37;;
239;SDS011;104;53.590;10.004;2022-11-27T14:24:35;36.13;;;17.50;;
239;SDS011;104;53.590;10.004;2022-11-27T14:27:17;35.03;;;17.17;;
239;SDS011;104;53.590;10.004;2022-11-27T14:29:45;28.37;;;15.10;;
239;SDS011;104;53.590;10.004;2022-11-27T14:32:13;35.40;;;15.50;;
239;SDS011;104;53.590;10.004;2022-11-27T14:34:42;28.70;;;14.47;;
239;SDS011;104;53.590;10.004;2022-11-27T14:37:21;29.37;;;15.50;;
239;SDS011;104;53.590;10.004;2022-11-27T14:39:48;38.00;;;15.80;;
239;SDS011;104;53.590;10.004;2022-11-27T14:42:18;36.43;;;15.83;;
239;SDS011;104;53.590;10.004;2022-11-27T14:44:46;30.03;;;14.43;;
239;SDS011;104;53.590;10.004;2022-11-27T14:47:17;38.63;;;16.60;;
239;SDS011;104;53.590;10.004;2022-11-27T14:49:50;47.37;;;21.50;;
239;SDS011;104;53.590;10.004;2022-11-27T14:52:23;27.17;;;14.40;;
239;SDS011;104;53.590;10.004;2022-11-27T14:54:52;34.27;;;15.33;;
239;SDS011;104;53.590;10.004;2022-11-27T14:57:22;29.00;;;13.80;;
239;SDS011;104;53.590;10.004;2022-11-27T15:00:09;33.90;;;14.70;;
239;SDS011;104;53.590;10.004;2022-11-27T15:02:41;33.27;;;14.60;;
239;SDS011;104;53.590;10.004;2022-11-27T15:05:15;35.27;;;16.43;;
239;SDS011;104;53.590;10.004;2022-11-27T15:07:46;38.63;;;16.43;;
239;SDS011;104;53.590;10.004;2022-11-27T15:10:20;34.80;;;14.43;;
239;SDS011;104;53.590;10.004;2022-11-27T15:13:00;33.53;;;15.67;;
239;SDS011;104;53.590;10.004;2022-11-27T15:15:31;33.67;;;14.30;;
239;SDS011;104;53.590;10.004;2022-11-27T15:18:00;30.93;;;13.73;;
239;SDS011;104;53.590;10.004;2022-11-27T15:20:34;28.70;;;14.40;;
239;SDS011;104;53.590;10.004;2022-11-27T15:23:11;34.33;;;14.87;;
239;SDS011;104;53.590;10.004;2022-11-27T15:25:41;31.17;;;15.27;;
239;SDS011;104;53.590;10.004;2022-11-27T15:30:52;45.63;;;15.83;;
239;SDS011;104;53.590;10.004;2022-11-27T15:33:24;33.57;;;15.13;;
239;SDS011;104;53.590;10.004;2022-11-27T15:35:53;32.63;;;14.97;;